Lenox, Missouri
Current Conditions -  °F | °C
As of 8:03 AM on Wednesday 26 Nov 2014 (Local Time) from KTBN Reporting Station
Light Rain Light Rain  
Wind Chill: 27°   Ceiling: 2800
Heat Index: 32°   Visibility: 9mi
Dew Point: 27°   Wind: 5mph
Humidity: 80%   Direction: 250°WSW
Pressure: 30"   Gusts: NA
Location:  37.65°N, 91.76°W
Report Text: KTBN 261403Z AUTO 25004KT 9SM -RA SCT020 BKN028 BKN034 OVC045 00/M03 A3000 RMK AO2 CIG 027V033 BKN028 V SCT CIG 023 RWY32
Loading
Personal Weather Stations






























Interactive Weather Map New forecast layout! Learn more

10-Day Weather Forecast

Advertisements
Track Severe Weather on mobile